LFKC/CLY METAR and TAF weather

Enter ICAO airport designator
Station Type Date Time Source
LFKC METAR 2019/02/23 00:30 UTC NOAA

LFKC 230030Z AUTO 19006KT CAVOK 05/04 Q1026


Station Type Date Time Source
LFKC Decoded METAR 2019/02/23 00:30 UTC NOAA

Calvi, France (LFKC) 42-32N 008-48E 58M
Feb 22, 2019 - 07:30 PM EST / 2019.02.23 0030 UTC
Wind: from the S (190 degrees) at 7 MPH (6 KT):0
Visibility: greater than 7 mile(s):0
Temperature: 41 F (5 C)
Dew Point: 39 F (4 C)
Relative Humidity: 93%
Pressure (altimeter): 30.30 in. Hg (1026 hPa)
ob: LFKC 230030Z AUTO 19006KT CAVOK 05/04 Q1026
cycle: 0

Station Type Date Time Source
LFKC TAF 2019/02/22 19:06 UTC NOAA

TAF TAF LFKC 221900Z 2219/2315 CNL


Example: see airport list